Time;durP1;ratioP1;P1;durP2;ratioP2;P2;SDS_P1;SDS_P2;PMS_P1;PMS_P2;Temp;Humidity;BMP_temperature;BMP_pressure;BME280_temperature;BME280_humidity;BME280_pressure;Samples;Min_cycle;Max_cycle;Signal;HPM_P1;HPM_P2
2023/07/23 00:01:23;;;;;;;6.00;1.88;;;15.30;99.90;;;;;;5074391;28;20028;-74
2023/07/23 00:03:49;;;;;;;3.83;1.35;;;15.30;99.90;;;;;;5074249;28;20027;-74
2023/07/23 00:06:16;;;;;;;4.03;1.02;;;15.30;99.90;;;;;;5056557;28;20032;-74
2023/07/23 00:08:42;;;;;;;4.15;1.30;;;15.30;99.90;;;;;;5056195;28;20040;-74
2023/07/23 00:11:07;;;;;;;6.93;2.35;;;15.30;99.90;;;;;;5056238;28;20032;-74
2023/07/23 00:13:33;;;;;;;3.50;1.70;;;15.60;99.90;;;;;;5074354;28;20021;-74
2023/07/23 00:15:58;;;;;;;7.60;2.05;;;15.30;99.90;;;;;;5056096;28;20016;-74
2023/07/23 00:18:24;;;;;;;6.43;2.08;;;15.30;99.90;;;;;;5074495;28;20025;-74
2023/07/23 00:20:49;;;;;;;3.53;1.50;;;15.20;99.90;;;;;;5073889;28;20484;-74
2023/07/23 00:23:15;;;;;;;4.57;1.75;;;15.30;99.90;;;;;;5073850;28;20028;-75
2023/07/23 00:25:42;;;;;;;6.97;2.10;;;15.30;99.90;;;;;;5074399;28;20478;-75
2023/07/23 00:28:07;;;;;;;3.90;1.67;;;15.30;99.90;;;;;;5073831;28;20480;-75
2023/07/23 00:30:33;;;;;;;4.40;1.90;;;15.30;99.90;;;;;;5073822;28;20028;-75
2023/07/23 00:32:58;;;;;;;4.93;1.48;;;15.30;99.90;;;;;;5073623;28;20020;-74
2023/07/23 00:35:24;;;;;;;8.25;2.15;;;15.40;99.90;;;;;;5073580;28;20036;-75
2023/07/23 00:37:49;;;;;;;5.55;2.50;;;15.30;99.90;;;;;;5074168;28;20095;-75
2023/07/23 00:40:15;;;;;;;4.65;1.92;;;15.30;99.90;;;;;;5055644;28;20120;-74
2023/07/23 00:42:40;;;;;;;6.47;2.67;;;15.30;99.90;;;;;;5055696;28;20451;-75
2023/07/23 00:45:06;;;;;;;6.68;2.60;;;15.30;99.90;;;;;;5055509;28;20024;-75
2023/07/23 00:47:32;;;;;;;7.82;3.15;;;15.30;99.90;;;;;;5055588;28;20025;-74
2023/07/23 00:49:58;;;;;;;4.60;2.03;;;15.30;99.90;;;;;;5055499;28;20387;-75
2023/07/23 00:52:24;;;;;;;7.78;2.47;;;15.30;99.90;;;;;;5073912;28;20504;-75
2023/07/23 00:54:49;;;;;;;8.02;2.42;;;15.30;99.90;;;;;;5073374;28;20380;-75
2023/07/23 00:57:15;;;;;;;5.80;2.58;;;15.30;99.90;;;;;;5055429;28;20052;-75
2023/07/23 00:59:41;;;;;;;5.20;1.95;;;15.30;99.90;;;;;;5055422;28;20052;-75
2023/07/23 01:02:07;;;;;;;7.53;2.53;;;15.30;99.90;;;;;;5073346;28;20495;-75
2023/07/23 01:04:33;;;;;;;5.63;1.92;;;15.20;99.90;;;;;;5073165;28;20120;-75
2023/07/23 01:07:02;;;;;;;9.15;2.08;;;15.20;99.90;;;;;;5073465;28;20477;-75
2023/07/23 01:09:29;;;;;;;5.68;2.83;;;15.10;99.90;;;;;;5073499;28;20025;-74
2023/07/23 01:11:55;;;;;;;8.57;2.70;;;15.20;99.90;;;;;;5073178;28;20060;-74
2023/07/23 01:14:21;;;;;;;9.80;2.17;;;15.20;99.90;;;;;;5073030;28;20484;-74
2023/07/23 01:16:47;;;;;;;8.32;3.50;;;15.30;99.90;;;;;;5073757;28;20042;-74
2023/07/23 01:19:15;;;;;;;8.15;3.72;;;15.30;99.90;;;;;;5055140;28;20019;-74
2023/07/23 01:21:41;;;;;;;7.07;2.72;;;15.30;99.90;;;;;;5055076;28;20085;-74
2023/07/23 01:24:06;;;;;;;5.20;2.60;;;16.00;99.90;;;;;;5072985;28;20502;-75
2023/07/23 01:26:32;;;;;;;13.32;2.80;;;15.30;99.90;;;;;;5073286;28;20070;-74
2023/07/23 01:28:57;;;;;;;7.45;2.88;;;15.30;99.90;;;;;;5055065;28;20027;-74
2023/07/23 01:31:23;;;;;;;6.95;2.63;;;15.30;99.90;;;;;;5073530;28;20028;-74
2023/07/23 01:33:50;;;;;;;7.93;2.40;;;15.30;99.90;;;;;;5078521;23;20053;-74
2023/07/23 01:36:16;;;;;;;9.27;3.22;;;15.30;99.90;;;;;;5073213;28;20392;-74
2023/07/23 01:38:42;;;;;;;7.78;2.47;;;15.30;99.90;;;;;;5072987;28;20055;-74
2023/07/23 01:41:08;;;;;;;9.55;2.40;;;15.30;99.90;;;;;;5072757;28;20495;-74
2023/07/23 01:43:34;;;;;;;5.93;2.83;;;15.30;99.90;;;;;;5054833;28;20031;-74
2023/07/23 01:45:59;;;;;;;6.13;2.20;;;15.30;99.90;;;;;;5072768;28;20074;-74
2023/07/23 01:48:25;;;;;;;6.90;3.17;;;15.30;99.90;;;;;;5072815;28;20111;-74
2023/07/23 01:50:51;;;;;;;10.18;3.15;;;15.30;99.90;;;;;;5054691;28;20106;-74
2023/07/23 01:53:16;;;;;;;6.93;2.78;;;15.30;99.90;;;;;;5054756;28;20032;-74
2023/07/23 01:55:42;;;;;;;10.52;3.38;;;16.00;99.90;;;;;;5072664;28;20024;-74
2023/07/23 01:58:08;;;;;;;9.27;3.25;;;15.20;99.90;;;;;;5054636;28;20028;-74
2023/07/23 02:00:33;;;;;;;5.88;2.40;;;15.20;99.90;;;;;;5072668;28;20027;-74
2023/07/23 02:02:59;;;;;;;7.55;3.00;;;15.20;99.90;;;;;;5072689;28;20111;-74
2023/07/23 02:05:25;;;;;;;5.18;2.30;;;15.20;99.90;;;;;;5072544;28;20074;-74
2023/07/23 02:07:50;;;;;;;12.60;2.90;;;15.20;99.90;;;;;;5072549;28;20033;-74
2023/07/23 02:10:20;;;;;;;10.45;3.40;;;15.20;99.90;;;;;;5073031;28;20052;-74
2023/07/23 02:12:46;;;;;;;8.70;3.70;;;15.20;99.90;;;;;;5073029;28;20384;-74
2023/07/23 02:15:12;;;;;;;9.85;2.70;;;15.10;99.90;;;;;;5072398;28;20020;-74
2023/07/23 02:17:38;;;;;;;5.50;2.65;;;15.10;99.90;;;;;;5072520;28;20070;-74
2023/07/23 02:20:05;;;;;;;7.38;3.30;;;15.10;99.90;;;;;;5072721;28;20017;-74
2023/07/23 02:22:31;;;;;;;8.63;3.03;;;15.10;99.90;;;;;;5076229;28;20021;-74
2023/07/23 02:24:57;;;;;;;5.40;2.55;;;15.10;99.90;;;;;;5057841;28;20391;-74
2023/07/23 02:27:22;;;;;;;9.18;3.17;;;15.10;99.90;;;;;;5075788;28;20063;-74
2023/07/23 02:29:48;;;;;;;8.13;3.88;;;15.10;99.90;;;;;;5075961;28;20147;-74
2023/07/23 02:32:13;;;;;;;9.77;3.83;;;15.10;99.90;;;;;;5076455;28;20025;-74
2023/07/23 02:34:39;;;;;;;7.90;2.92;;;15.10;99.90;;;;;;5075841;28;20064;-74
2023/07/23 02:37:05;;;;;;;8.48;3.53;;;15.10;99.90;;;;;;5075969;28;20044;-74
2023/07/23 02:39:31;;;;;;;8.00;3.00;;;15.20;99.90;;;;;;5075992;28;20100;-74
2023/07/23 02:41:57;;;;;;;7.13;3.45;;;16.10;99.90;;;;;;5057918;28;20107;-74
2023/07/23 02:44:22;;;;;;;7.82;3.17;;;15.10;99.90;;;;;;5057921;28;20437;-75
2023/07/23 02:46:48;;;;;;;8.18;3.05;;;15.10;99.90;;;;;;5075707;28;20074;-75
2023/07/23 02:49:13;;;;;;;9.57;2.58;;;15.10;99.90;;;;;;5075802;28;20052;-75
2023/07/23 02:51:39;;;;;;;8.20;3.28;;;15.10;99.90;;;;;;5075691;28;20028;-74
2023/07/23 02:54:05;;;;;;;6.88;3.38;;;15.30;99.90;;;;;;5057580;28;20031;-74
2023/07/23 02:56:30;;;;;;;8.52;3.30;;;15.10;99.90;;;;;;5075675;28;20020;-74
2023/07/23 02:58:56;;;;;;;6.95;3.25;;;15.10;99.90;;;;;;5057662;28;20116;-74
2023/07/23 03:01:21;;;;;;;7.93;4.13;;;15.10;99.90;;;;;;5075627;28;20491;-75
2023/07/23 03:03:47;;;;;;;6.55;3.20;;;15.10;99.90;;;;;;5075546;28;20032;-75
2023/07/23 03:06:14;;;;;;;6.63;3.45;;;15.10;99.90;;;;;;5075568;28;20419;-74
2023/07/23 03:08:40;;;;;;;10.48;3.85;;;15.10;99.90;;;;;;5057652;28;20036;-74
2023/07/23 03:11:06;;;;;;;8.98;3.10;;;15.10;99.90;;;;;;5057439;28;20082;-74
2023/07/23 03:13:32;;;;;;;7.63;3.65;;;15.00;99.90;;;;;;5057141;28;20374;-74
2023/07/23 03:15:57;;;;;;;9.95;3.75;;;15.00;99.90;;;;;;5075342;28;20498;-74
2023/07/23 03:18:23;;;;;;;8.15;3.30;;;15.00;99.90;;;;;;5075841;28;20031;-74
2023/07/23 03:20:48;;;;;;;7.70;3.78;;;15.00;99.90;;;;;;5075231;28;20029;-74
2023/07/23 03:23:15;;;;;;;9.85;3.95;;;15.00;99.90;;;;;;5057056;28;20483;-74
2023/07/23 03:25:40;;;;;;;6.15;3.38;;;15.70;99.90;;;;;;5057128;28;20073;-74
2023/07/23 03:28:06;;;;;;;10.65;3.75;;;15.00;99.90;;;;;;5075071;28;20024;-74
2023/07/23 03:30:31;;;;;;;7.70;3.47;;;15.00;99.90;;;;;;5075024;28;20024;-75
2023/07/23 03:32:57;;;;;;;12.18;4.32;;;15.00;99.90;;;;;;5073821;28;20476;-75
2023/07/23 03:35:22;;;;;;;5.97;2.85;;;15.00;99.90;;;;;;5074845;28;20499;-75
2023/07/23 03:37:48;;;;;;;8.00;3.33;;;15.00;99.90;;;;;;5057172;28;20074;-75
2023/07/23 03:40:14;;;;;;;11.07;3.85;;;15.10;99.90;;;;;;5075274;28;20025;-75
2023/07/23 03:42:39;;;;;;;6.78;3.03;;;15.00;99.90;;;;;;5074822;28;20024;-75
2023/07/23 03:45:06;;;;;;;7.97;3.47;;;15.00;99.90;;;;;;5075197;28;20025;-75
2023/07/23 03:47:31;;;;;;;8.38;3.40;;;15.00;99.90;;;;;;5074505;28;20514;-75
2023/07/23 03:49:57;;;;;;;8.02;3.80;;;15.00;99.90;;;;;;5074651;28;20025;-75
2023/07/23 03:52:23;;;;;;;7.75;3.47;;;15.00;99.90;;;;;;5074560;28;20112;-75
2023/07/23 03:54:49;;;;;;;6.80;3.13;;;15.00;99.90;;;;;;5075074;28;20542;-75
2023/07/23 03:57:14;;;;;;;9.25;3.33;;;15.00;99.90;;;;;;5074465;28;20028;-75
2023/07/23 03:59:45;;;;;;;6.13;3.20;;;14.90;99.90;;;;;;5074459;28;20020;-75
2023/07/23 04:02:11;;;;;;;6.15;2.60;;;15.00;99.90;;;;;;5056576;28;20045;-75
2023/07/23 04:04:38;;;;;;;8.57;3.80;;;14.90;99.90;;;;;;5074299;28;20099;-75
2023/07/23 04:07:05;;;;;;;8.35;3.00;;;14.90;99.90;;;;;;5074809;28;20353;-75
2023/07/23 04:09:31;;;;;;;6.18;3.22;;;15.00;99.90;;;;;;5074792;28;20059;-75
2023/07/23 04:11:57;;;;;;;7.72;3.42;;;15.00;99.90;;;;;;5074246;28;20147;-74
2023/07/23 04:14:23;;;;;;;7.70;2.47;;;15.00;99.90;;;;;;5073949;28;20081;-74
2023/07/23 04:16:49;;;;;;;7.95;3.15;;;15.00;99.90;;;;;;5074155;28;20020;-74
2023/07/23 04:19:15;;;;;;;10.68;3.38;;;15.00;99.90;;;;;;5074060;28;20091;-74
2023/07/23 04:21:40;;;;;;;5.97;2.65;;;15.00;99.90;;;;;;5073953;28;20087;-74
2023/07/23 04:24:06;;;;;;;6.35;2.72;;;15.00;99.90;;;;;;5074122;28;20020;-73
2023/07/23 04:26:32;;;;;;;6.32;3.40;;;15.10;99.90;;;;;;5073898;28;20028;-73
2023/07/23 04:28:58;;;;;;;8.00;3.17;;;15.10;99.90;;;;;;5073926;28;20036;-73
2023/07/23 04:31:24;;;;;;;6.80;2.42;;;15.10;99.90;;;;;;5073778;28;20023;-73
2023/07/23 04:33:50;;;;;;;7.25;2.70;;;15.10;99.90;;;;;;5073515;28;20032;-73
2023/07/23 04:36:16;;;;;;;6.47;2.33;;;15.20;99.90;;;;;;5073770;28;20080;-73
2023/07/23 04:38:43;;;;;;;4.32;2.33;;;15.20;99.90;;;;;;5055843;28;20033;-73
2023/07/23 04:41:09;;;;;;;6.22;2.13;;;15.20;99.90;;;;;;5073333;28;20025;-73
2023/07/23 04:43:36;;;;;;;3.53;1.50;;;15.40;99.90;;;;;;5073322;28;20071;-73
2023/07/23 04:46:04;;;;;;;9.95;1.75;;;15.40;99.90;;;;;;5073550;28;20108;-73
2023/07/23 04:48:30;;;;;;;5.87;2.20;;;15.50;99.90;;;;;;5073654;28;20472;-73
2023/07/23 04:50:57;;;;;;;2.97;1.52;;;15.50;99.90;;;;;;5073467;28;20273;-73
2023/07/23 04:53:23;;;;;;;3.70;1.30;;;15.60;99.90;;;;;;5073364;28;20025;-73
2023/07/23 04:58:26;;;;;;;6.85;2.53;;;15.60;99.90;;;;;;5224764;22;20077;-71
2023/07/23 05:00:52;;;;;;;4.60;1.77;;;15.70;99.90;;;;;;5013747;28;20022;-73
2023/07/23 05:03:18;;;;;;;6.18;1.88;;;15.70;99.90;;;;;;5012323;28;20040;-73
2023/07/23 05:05:46;;;;;;;4.43;1.35;;;15.80;99.90;;;;;;5013713;28;20026;-74
2023/07/23 05:08:12;;;;;;;3.17;1.40;;;15.70;99.90;;;;;;5013694;28;20049;-73
2023/07/23 05:10:38;;;;;;;4.63;1.70;;;15.80;99.90;;;;;;5013657;28;20030;-74
2023/07/23 05:13:04;;;;;;;6.25;2.55;;;15.80;99.90;;;;;;5012116;28;20026;-74
2023/07/23 05:15:29;;;;;;;7.47;1.83;;;15.80;99.90;;;;;;5013522;28;20054;-73
2023/07/23 05:17:55;;;;;;;5.15;1.25;;;15.80;99.90;;;;;;5012424;28;20427;-75
2023/07/23 05:20:27;;;;;;;6.13;1.70;;;15.80;99.90;;;;;;5013459;28;20075;-74
2023/07/23 05:22:55;;;;;;;6.82;1.10;;;15.90;99.90;;;;;;5014751;28;20030;-77
2023/07/23 05:25:20;;;;;;;4.15;1.60;;;15.90;99.90;;;;;;5012786;28;20025;-74
2023/07/23 05:27:46;;;;;;;3.00;1.13;;;16.10;99.90;;;;;;5015446;28;20120;-76
2023/07/23 05:30:13;;;;;;;3.55;1.27;;;16.00;99.90;;;;;;4996202;28;20081;-77
2023/07/23 05:32:39;;;;;;;6.25;1.50;;;16.00;99.90;;;;;;5013731;28;20025;-77
2023/07/23 05:35:05;;;;;;;7.97;2.30;;;16.00;99.90;;;;;;5013647;28;20022;-77
2023/07/23 05:37:31;;;;;;;3.58;1.52;;;16.00;99.90;;;;;;5013873;28;20097;-77
2023/07/23 05:39:56;;;;;;;3.70;1.27;;;16.00;99.90;;;;;;5012619;28;20080;-77
2023/07/23 05:42:22;;;;;;;5.97;2.13;;;16.30;99.90;;;;;;5012479;28;20026;-77
2023/07/23 05:44:49;;;;;;;6.07;1.60;;;16.10;99.90;;;;;;5013538;28;20444;-78
2023/07/23 05:47:14;;;;;;;4.50;1.17;;;16.10;99.90;;;;;;5013726;28;20022;-77
2023/07/23 05:49:40;;;;;;;8.27;2.10;;;16.40;99.90;;;;;;5011950;28;20080;-77
2023/07/23 05:52:06;;;;;;;4.50;1.65;;;16.00;99.90;;;;;;5013599;28;20436;-78
2023/07/23 05:54:31;;;;;;;3.58;1.35;;;16.00;99.90;;;;;;5013673;28;20101;-77
2023/07/23 05:56:58;;;;;;;6.53;1.88;;;16.10;99.90;;;;;;5016798;28;20109;-77
2023/07/23 05:59:24;;;;;;;4.05;2.13;;;16.10;99.90;;;;;;5016379;28;20065;-77
2023/07/23 06:01:49;;;;;;;5.40;1.63;;;16.10;99.90;;;;;;5017043;28;20022;-77
2023/07/23 06:04:15;;;;;;;6.93;1.65;;;16.10;99.90;;;;;;5017070;28;20551;-77
2023/07/23 06:06:40;;;;;;;5.43;1.90;;;16.10;99.90;;;;;;5015957;28;20030;-77
2023/07/23 06:09:06;;;;;;;8.63;1.75;;;16.10;99.90;;;;;;5017984;28;20022;-76
2023/07/23 06:11:32;;;;;;;5.20;1.88;;;16.10;99.90;;;;;;5015610;28;20026;-76
2023/07/23 06:13:58;;;;;;;5.50;1.67;;;16.00;99.90;;;;;;5016805;28;20025;-79
2023/07/23 06:16:23;;;;;;;3.70;1.60;;;16.00;99.90;;;;;;5015636;28;20068;-76
2023/07/23 06:18:50;;;;;;;5.22;1.95;;;16.00;99.90;;;;;;5015394;28;20113;-77
2023/07/23 06:21:15;;;;;;;8.32;1.77;;;15.90;99.90;;;;;;5014571;28;20018;-75
2023/07/23 06:23:41;;;;;;;6.43;2.22;;;15.90;99.90;;;;;;5014699;28;20048;-74
2023/07/23 06:26:07;;;;;;;5.20;1.77;;;15.90;99.90;;;;;;5013430;28;20046;-74
2023/07/23 06:28:32;;;;;;;6.35;2.45;;;16.00;99.90;;;;;;5013368;28;20083;-74
2023/07/23 06:30:58;;;;;;;8.15;1.98;;;15.90;99.90;;;;;;5014311;28;20026;-74
2023/07/23 06:33:23;;;;;;;6.03;1.90;;;15.90;99.90;;;;;;5014387;28;20033;-74
2023/07/23 06:35:49;;;;;;;8.40;2.78;;;15.90;99.90;;;;;;5015852;28;20022;-74
2023/07/23 06:38:15;;;;;;;7.15;1.52;;;15.90;99.90;;;;;;5015000;28;20479;-74
2023/07/23 06:40:48;;;;;;;6.18;1.65;;;15.80;99.90;;;;;;5016317;28;20022;-74
2023/07/23 06:43:16;;;;;;;4.00;1.38;;;15.90;99.90;;;;;;5016311;28;20549;-74
2023/07/23 06:45:43;;;;;;;5.00;1.50;;;15.80;99.90;;;;;;5016375;28;20022;-74
2023/07/23 06:48:08;;;;;;;5.30;1.42;;;15.80;99.90;;;;;;5016200;28;20507;-74
2023/07/23 06:50:34;;;;;;;7.18;1.27;;;15.80;99.90;;;;;;5016286;28;20018;-74
2023/07/23 06:53:00;;;;;;;5.75;1.77;;;15.80;99.90;;;;;;5016014;28;20083;-74
2023/07/23 06:55:25;;;;;;;8.38;2.22;;;15.70;99.90;;;;;;5016038;28;20030;-74
2023/07/23 06:57:51;;;;;;;5.15;2.17;;;15.70;99.90;;;;;;5015946;28;20038;-74
2023/07/23 07:00:16;;;;;;;5.03;1.50;;;15.70;99.90;;;;;;5016020;28;20061;-74
2023/07/23 07:02:42;;;;;;;5.85;1.80;;;15.70;99.90;;;;;;5016496;28;20587;-74
2023/07/23 07:05:09;;;;;;;7.65;2.05;;;15.60;99.90;;;;;;5014469;28;20506;-74
2023/07/23 07:07:35;;;;;;;7.75;1.60;;;15.70;99.90;;;;;;5015699;28;20022;-74
2023/07/23 07:10:05;;;;;;;5.53;1.80;;;15.80;99.90;;;;;;5015811;28;20477;-74
2023/07/23 07:12:31;;;;;;;8.75;2.05;;;15.80;99.90;;;;;;5015669;28;20032;-74
2023/07/23 07:14:56;;;;;;;8.05;1.75;;;15.80;99.90;;;;;;5015693;28;20092;-74
2023/07/23 07:17:22;;;;;;;4.28;1.38;;;15.90;99.90;;;;;;5014304;28;20025;-74
2023/07/23 07:19:47;;;;;;;19.40;2.22;;;16.00;99.90;;;;;;5015666;28;20508;-74
2023/07/23 07:22:13;;;;;;;6.28;1.35;;;16.00;99.90;;;;;;5016110;28;20018;-74
2023/07/23 07:24:38;;;;;;;6.40;1.58;;;16.00;99.90;;;;;;5014155;28;20464;-74
2023/07/23 07:27:08;;;;;;;7.90;2.22;;;16.00;99.90;;;;;;5016007;28;20113;-74
2023/07/23 07:29:34;;;;;;;6.80;1.92;;;16.00;99.90;;;;;;5015425;28;20049;-74
2023/07/23 07:32:00;;;;;;;3.13;1.50;;;16.00;99.90;;;;;;5015391;28;20481;-74
2023/07/23 07:34:25;;;;;;;7.95;1.55;;;16.00;99.90;;;;;;5015408;28;20033;-74
2023/07/23 07:36:51;;;;;;;7.00;2.00;;;15.90;99.90;;;;;;5013901;28;20025;-74
2023/07/23 07:39:16;;;;;;;4.00;1.65;;;15.90;99.90;;;;;;5015159;28;20053;-74
2023/07/23 07:41:42;;;;;;;5.43;2.10;;;16.00;99.90;;;;;;5015186;28;20108;-74
2023/07/23 07:44:08;;;;;;;4.07;1.70;;;16.00;99.90;;;;;;5015113;28;20105;-74
2023/07/23 07:46:33;;;;;;;5.90;2.03;;;15.90;99.90;;;;;;5015148;28;20018;-74
2023/07/23 07:48:59;;;;;;;5.00;2.30;;;15.90;99.90;;;;;;5015447;28;20030;-74
2023/07/23 07:51:25;;;;;;;3.35;1.67;;;16.10;99.90;;;;;;5014985;28;20032;-74
2023/07/23 07:53:50;;;;;;;3.03;1.42;;;15.90;99.90;;;;;;5015053;28;20481;-74
2023/07/23 07:56:17;;;;;;;8.73;1.30;;;16.00;99.90;;;;;;5014969;28;20096;-74
2023/07/23 07:58:45;;;;;;;22.33;2.38;;;16.00;99.90;;;;;;5014784;28;20389;-74
2023/07/23 08:01:10;;;;;;;6.82;1.88;;;16.10;99.90;;;;;;5013558;28;20026;-74
2023/07/23 08:03:36;;;;;;;7.32;1.92;;;16.10;99.90;;;;;;5013302;28;20022;-74
2023/07/23 08:06:03;;;;;;;2.35;1.35;;;16.10;99.90;;;;;;5014635;28;20034;-74
2023/07/23 08:08:31;;;;;;;5.22;1.50;;;16.10;99.90;;;;;;5013569;28;20029;-74
2023/07/23 08:11:01;;;;;;;4.25;1.52;;;16.10;99.90;;;;;;5014626;28;20034;-74
2023/07/23 08:13:27;;;;;;;3.20;1.27;;;16.20;99.90;;;;;;5013227;28;20026;-74
2023/07/23 08:15:54;;;;;;;3.55;1.45;;;16.30;99.90;;;;;;5014945;28;20018;-74
2023/07/23 08:18:20;;;;;;;4.22;1.73;;;16.30;99.90;;;;;;5013997;28;20053;-74
2023/07/23 08:20:46;;;;;;;2.70;0.93;;;16.40;99.90;;;;;;5013212;28;20029;-74
2023/07/23 08:23:12;;;;;;;3.60;1.40;;;16.50;99.90;;;;;;5014351;28;20026;-74
2023/07/23 08:25:38;;;;;;;3.05;1.58;;;16.50;99.90;;;;;;5014298;28;20021;-74
2023/07/23 08:28:06;;;;;;;6.43;1.77;;;16.60;99.90;;;;;;5014375;28;20124;-74
2023/07/23 08:30:32;;;;;;;5.03;1.55;;;16.60;99.90;;;;;;5013031;28;20053;-74
2023/07/23 08:32:59;;;;;;;7.25;1.63;;;16.60;99.90;;;;;;5014143;28;20069;-74
2023/07/23 08:35:27;;;;;;;3.10;1.38;;;16.60;99.90;;;;;;5012850;28;20022;-74
2023/07/23 08:37:55;;;;;;;3.10;1.27;;;16.60;99.90;;;;;;5014071;28;20030;-74
2023/07/23 08:40:23;;;;;;;3.50;0.90;;;16.70;99.90;;;;;;5014243;28;20026;-74
2023/07/23 08:42:54;;;;;;;2.00;0.98;;;16.80;99.90;;;;;;5012874;28;20484;-74
2023/07/23 08:45:32;;;;;;;7.97;1.50;;;16.90;99.90;;;;;;5013973;28;20101;-74
2023/07/23 08:48:17;;;;;;;3.88;1.60;;;16.80;99.90;;;;;;5013792;28;20029;-74
2023/07/23 08:50:44;;;;;;;3.13;1.05;;;16.80;99.90;;;;;;5012631;28;20105;-74
2023/07/23 08:53:12;;;;;;;3.28;1.10;;;16.80;99.90;;;;;;5012506;28;20507;-74
2023/07/23 08:55:45;;;;;;;4.57;1.73;;;16.70;99.90;;;;;;5012549;28;20361;-74
2023/07/23 08:58:16;;;;;;;5.07;1.50;;;16.70;99.90;;;;;;5012423;28;20036;-74
2023/07/23 09:00:43;;;;;;;2.13;1.10;;;16.70;99.90;;;;;;5014377;28;20025;-74
2023/07/23 09:03:10;;;;;;;3.78;1.45;;;16.70;99.90;;;;;;5014238;28;20473;-74
2023/07/23 09:05:36;;;;;;;4.05;1.27;;;16.70;99.90;;;;;;5013700;28;20112;-74
2023/07/23 09:08:02;;;;;;;3.58;1.10;;;16.80;99.90;;;;;;5013710;28;20084;-74
2023/07/23 09:10:27;;;;;;;1.73;1.00;;;16.80;99.90;;;;;;5013738;28;20021;-74
2023/07/23 09:12:53;;;;;;;6.05;1.65;;;16.80;99.90;;;;;;5013600;28;20029;-74
2023/07/23 09:15:18;;;;;;;2.95;0.90;;;16.80;99.90;;;;;;5013567;28;20022;-74
2023/07/23 09:17:51;;;;;;;5.15;1.67;;;16.80;99.90;;;;;;5013621;28;20018;-74
2023/07/23 09:20:18;;;;;;;5.85;1.15;;;16.90;99.90;;;;;;5012276;28;20026;-74
2023/07/23 09:22:44;;;;;;;2.58;1.13;;;16.90;99.90;;;;;;5013509;28;20064;-74
2023/07/23 09:25:10;;;;;;;4.60;1.65;;;17.00;99.90;;;;;;5013428;28;20049;-74
2023/07/23 09:27:42;;;;;;;3.22;1.00;;;17.00;99.90;;;;;;5013550;28;20076;-74
2023/07/23 09:30:07;;;;;;;2.45;1.15;;;17.00;99.90;;;;;;5012599;28;20087;-74
2023/07/23 09:32:33;;;;;;;2.33;1.25;;;17.00;99.90;;;;;;5012013;28;20465;-74
2023/07/23 09:34:59;;;;;;;4.72;1.30;;;17.00;99.90;;;;;;5011956;28;20033;-74
2023/07/23 09:37:29;;;;;;;3.65;1.70;;;17.00;99.90;;;;;;5013427;28;20025;-74
2023/07/23 09:39:56;;;;;;;2.55;0.95;;;17.00;99.90;;;;;;5011996;28;20075;-74
2023/07/23 09:42:24;;;;;;;4.07;1.50;;;17.00;99.90;;;;;;5013353;28;20049;-74
2023/07/23 09:44:51;;;;;;;1.63;0.90;;;17.10;99.90;;;;;;5013233;28;20380;-74
2023/07/23 09:47:24;;;;;;;4.85;1.67;;;17.20;99.90;;;;;;5013272;28;20500;-74
2023/07/23 09:49:52;;;;;;;2.42;0.95;;;17.20;99.90;;;;;;5013306;28;20026;-74
2023/07/23 09:52:21;;;;;;;4.53;1.67;;;17.30;99.90;;;;;;5013309;28;20117;-74
2023/07/23 09:54:47;;;;;;;2.97;1.55;;;17.30;99.90;;;;;;5013065;28;20026;-74
2023/07/23 09:57:13;;;;;;;3.45;1.67;;;17.40;99.90;;;;;;5013063;28;20102;-74
2023/07/23 09:59:39;;;;;;;4.60;1.45;;;17.30;99.90;;;;;;5011934;28;20026;-74
2023/07/23 10:02:07;;;;;;;2.97;1.88;;;17.30;99.90;;;;;;5011626;28;20034;-74
2023/07/23 10:04:35;;;;;;;2.40;1.05;;;18.20;99.90;;;;;;5013160;28;20018;-74
2023/07/23 10:07:02;;;;;;;3.27;1.63;;;17.30;99.90;;;;;;5013114;28;20022;-74
2023/07/23 10:09:28;;;;;;;1.75;1.10;;;17.30;99.90;;;;;;5013083;28;20374;-74
2023/07/23 10:11:54;;;;;;;2.58;1.65;;;17.40;99.90;;;;;;5011714;28;20465;-74
2023/07/23 10:14:21;;;;;;;2.38;1.25;;;17.40;99.90;;;;;;5012926;28;20049;-74
2023/07/23 10:16:48;;;;;;;2.45;1.10;;;17.40;99.90;;;;;;5013595;28;20025;-74
2023/07/23 10:19:15;;;;;;;1.65;0.77;;;17.30;99.90;;;;;;5012995;28;20385;-74
2023/07/23 10:21:45;;;;;;;2.13;0.80;;;17.20;99.90;;;;;;5013523;28;20419;-74
2023/07/23 10:24:10;;;;;;;2.63;1.17;;;17.30;99.90;;;;;;5012865;28;20506;-74
2023/07/23 10:26:46;;;;;;;1.90;1.05;;;17.10;99.90;;;;;;5013511;28;20053;-74
2023/07/23 10:29:14;;;;;;;3.22;1.05;;;17.10;99.90;;;;;;5013773;28;20117;-74
2023/07/23 10:31:42;;;;;;;4.07;1.88;;;17.10;99.90;;;;;;5012880;28;20022;-74
2023/07/23 10:34:25;;;;;;;2.20;0.87;;;17.10;99.90;;;;;;5012800;28;20485;-74
2023/07/23 10:37:18;;;;;;;3.17;1.55;;;17.10;99.90;;;;;;5012864;28;20385;-74
2023/07/23 10:39:52;;;;;;;2.10;1.38;;;17.20;99.90;;;;;;5013158;28;20101;-74
2023/07/23 10:42:38;;;;;;;3.03;1.65;;;17.20;99.90;;;;;;5014806;28;20097;-74
2023/07/23 10:45:17;;;;;;;2.53;1.40;;;17.40;99.90;;;;;;5014909;28;20109;-74
2023/07/23 10:47:58;;;;;;;4.28;1.90;;;17.50;99.90;;;;;;5016498;28;20489;-74
2023/07/23 10:50:27;;;;;;;2.72;1.17;;;17.60;99.90;;;;;;5016336;28;20032;-74
2023/07/23 10:53:05;;;;;;;7.13;1.80;;;17.60;99.90;;;;;;5016081;28;20480;-74
2023/07/23 10:55:50;;;;;;;1.40;1.03;;;17.70;99.90;;;;;;5016429;28;20428;-74
2023/07/23 10:58:20;;;;;;;4.15;1.95;;;17.70;99.90;;;;;;5014551;28;20038;-74
2023/07/23 11:00:47;;;;;;;2.50;1.55;;;17.90;99.90;;;;;;5016093;28;20029;-74
2023/07/23 11:03:18;;;;;;;3.60;1.80;;;18.30;99.90;;;;;;5015867;28;20493;-74
2023/07/23 11:05:44;;;;;;;3.90;1.80;;;18.40;99.90;;;;;;5014700;28;20033;-74
2023/07/23 11:08:23;;;;;;;3.05;1.40;;;18.60;99.90;;;;;;5015807;28;20022;-74
2023/07/23 11:11:02;;;;;;;4.03;1.92;;;18.70;99.90;;;;;;5015798;28;20030;-74
2023/07/23 11:13:33;;;;;;;4.38;1.95;;;18.80;99.90;;;;;;5014258;28;20022;-74
2023/07/23 11:16:00;;;;;;;4.72;1.90;;;18.80;99.90;;;;;;5016057;28;20473;-74
2023/07/23 11:18:30;;;;;;;2.13;1.58;;;18.70;99.90;;;;;;5015628;28;20440;-74
2023/07/23 11:20:57;;;;;;;4.40;1.90;;;18.70;99.90;;;;;;5016003;28;20105;-74
2023/07/23 11:23:25;;;;;;;2.80;2.10;;;18.70;99.90;;;;;;5016065;28;20030;-74
2023/07/23 11:25:51;;;;;;;5.05;2.08;;;18.70;99.90;;;;;;5015519;28;20511;-74
2023/07/23 11:28:19;;;;;;;3.05;1.75;;;18.80;99.90;;;;;;5015819;28;20032;-74
2023/07/23 11:30:49;;;;;;;3.73;2.07;;;19.00;99.90;;;;;;5014095;28;20025;-74
2023/07/23 11:33:15;;;;;;;3.20;1.80;;;19.20;99.90;;;;;;5013931;28;20284;-74
2023/07/23 11:35:42;;;;;;;2.45;1.73;;;19.20;99.90;;;;;;5015415;28;20492;-74
2023/07/23 11:38:07;;;;;;;2.47;1.23;;;19.20;99.90;;;;;;5014506;28;20033;-74
2023/07/23 11:40:33;;;;;;;3.05;1.30;;;19.30;99.90;;;;;;5015293;28;20018;-74
2023/07/23 11:43:06;;;;;;;5.63;2.15;;;19.40;99.90;;;;;;5015192;28;20034;-74
2023/07/23 11:45:41;;;;;;;5.95;2.05;;;19.70;99.90;;;;;;5015170;28;20567;-74
2023/07/23 11:48:18;;;;;;;4.85;2.10;;;19.80;99.90;;;;;;5015182;28;20493;-74
2023/07/23 11:50:45;;;;;;;5.43;2.22;;;19.90;99.90;;;;;;5015108;28;20097;-74
2023/07/23 11:53:10;;;;;;;2.15;1.50;;;20.00;99.90;;;;;;5012589;28;20561;-74
2023/07/23 11:55:36;;;;;;;2.28;1.77;;;20.00;99.90;;;;;;5015222;28;20058;-74
2023/07/23 11:58:02;;;;;;;3.33;1.70;;;19.90;99.90;;;;;;5013524;28;20029;-74
2023/07/23 12:00:39;;;;;;;3.40;2.03;;;20.00;99.90;;;;;;5014910;28;20018;-74
2023/07/23 12:03:09;;;;;;;4.75;1.83;;;20.00;99.90;;;;;;5015071;28;20485;-74
2023/07/23 12:05:41;;;;;;;5.75;1.42;;;20.30;99.90;;;;;;5014863;28;20485;-74
2023/07/23 12:08:07;;;;;;;2.45;1.42;;;20.60;99.90;;;;;;5014780;28;20105;-74
2023/07/23 12:10:33;;;;;;;2.95;1.00;;;20.90;99.90;;;;;;5013361;28;20064;-74
2023/07/23 12:13:07;;;;;;;2.28;1.42;;;21.30;99.90;;;;;;5014539;28;20108;-74
2023/07/23 12:15:33;;;;;;;4.03;1.20;;;21.60;99.90;;;;;;5013478;28;20084;-74
2023/07/23 12:17:59;;;;;;;1.08;0.75;;;21.80;99.90;;;;;;5014606;28;20481;-74
2023/07/23 12:20:25;;;;;;;2.63;0.93;;;22.10;99.90;;;;;;5014468;28;20022;-74
2023/07/23 12:23:00;;;;;;;3.20;1.52;;;22.30;99.90;;;;;;5013115;28;20083;-74
2023/07/23 12:25:26;;;;;;;2.55;1.23;;;21.90;99.90;;;;;;5014304;28;20481;-74
2023/07/23 12:27:51;;;;;;;2.60;1.40;;;21.80;99.90;;;;;;5014516;28;20414;-74
2023/07/23 12:30:17;;;;;;;2.50;1.17;;;21.80;99.90;;;;;;5014379;28;20029;-74
2023/07/23 12:32:47;;;;;;;6.72;1.45;;;21.80;99.90;;;;;;5014315;28;20022;-74
2023/07/23 12:35:13;;;;;;;2.85;1.48;;;21.60;99.90;;;;;;5014250;28;20481;-74
2023/07/23 12:37:38;;;;;;;4.28;1.83;;;21.60;99.90;;;;;;5014196;28;20032;-74
2023/07/23 12:40:08;;;;;;;4.70;1.08;;;21.60;99.90;;;;;;5014160;28;20033;-74
2023/07/23 12:42:34;;;;;;;2.00;1.27;;;21.50;99.90;;;;;;5014092;28;20049;-74
2023/07/23 12:45:00;;;;;;;2.42;1.25;;;21.40;99.90;;;;;;5012739;28;20030;-74
2023/07/23 12:47:28;;;;;;;1.23;0.80;;;21.30;99.90;;;;;;5014014;28;20025;-74